Time;durP1;ratioP1;P1;durP2;ratioP2;P2;SDS_P1;SDS_P2;PMS_P1;PMS_P2;Temp;Humidity;BMP_temperature;BMP_pressure;BME280_temperature;BME280_humidity;BME280_pressure;Samples;Min_cycle;Max_cycle;Signal;HPM_P1;HPM_P2
2022/06/20 00:02:14;;;;;;;10.00;9.15;;;;;;;16.39;70.54;100539.22;5001714;27;20235;-70
2022/06/20 00:04:39;;;;;;;9.75;8.82;;;;;;;16.63;69.74;100551.53;5035499;27;20013;-68
2022/06/20 00:07:05;;;;;;;11.13;8.95;;;;;;;16.54;70.11;100565.94;4999331;27;20266;-68
2022/06/20 00:09:30;;;;;;;14.15;9.05;;;;;;;16.56;70.28;100578.13;5015276;27;20796;-69
2022/06/20 00:11:56;;;;;;;10.18;9.00;;;;;;;16.53;70.20;100564.31;4994953;27;20262;-67
2022/06/20 00:14:21;;;;;;;10.35;9.18;;;;;;;16.52;70.29;100560.78;4995755;27;20028;-67
2022/06/20 00:16:47;;;;;;;9.27;8.40;;;;;;;16.54;70.13;100561.47;5011934;27;20378;-67
2022/06/20 00:19:12;;;;;;;11.35;7.93;;;;;;;16.55;70.39;100548.91;4997392;27;20852;-67
2022/06/20 00:21:38;;;;;;;10.52;8.50;;;;;;;16.53;70.71;100541.09;5017200;27;20428;-67
2022/06/20 00:24:04;;;;;;;9.57;8.00;;;;;;;16.58;70.31;100527.19;5020922;27;20622;-68
2022/06/20 00:26:30;;;;;;;13.45;8.23;;;;;;;16.48;70.85;100512.25;5034267;27;20012;-68
2022/06/20 00:28:56;;;;;;;8.82;7.93;;;;;;;16.46;70.93;100487.56;5029110;27;20032;-67
2022/06/20 00:31:21;;;;;;;8.93;8.02;;;;;;;16.51;70.95;100476.31;5011136;27;20063;-67
2022/06/20 00:33:47;;;;;;;9.82;8.32;;;;;;;16.55;70.52;100485.63;5028871;27;20936;-67
2022/06/20 00:36:12;;;;;;;10.20;8.55;;;;;;;16.38;71.35;100494.81;5010535;27;20515;-68
2022/06/20 00:38:38;;;;;;;13.27;9.05;;;;;;;16.40;71.67;100515.00;5012078;27;20129;-68
2022/06/20 00:41:09;;;;;;;10.15;8.27;;;;;;;16.35;71.46;100509.34;5011550;27;20073;-68
2022/06/20 00:44:01;;;;;;;8.85;7.85;;;;;;;16.45;72.16;100491.22;5019325;27;20010;-68
2022/06/20 00:46:32;;;;;;;11.85;7.45;;;;;;;16.50;72.03;100501.38;4989482;27;20120;-68
2022/06/20 00:49:27;;;;;;;11.00;7.78;;;;;;;16.31;72.34;100524.09;5017614;27;20734;-68
2022/06/20 00:51:56;;;;;;;9.45;6.57;;;;;;;16.23;72.30;100535.69;5030936;27;20541;-68
2022/06/20 00:54:37;;;;;;;7.25;6.03;;;;;;;15.97;72.77;100536.84;5027676;27;20120;-67
2022/06/20 00:57:19;;;;;;;8.68;5.97;;;;;;;16.10;72.70;100520.25;5028218;27;20521;-68
2022/06/20 00:59:46;;;;;;;6.00;5.43;;;;;;;16.22;73.09;100535.84;4997851;27;20128;-68
2022/06/20 01:02:25;;;;;;;7.47;5.18;;;;;;;16.29;72.44;100545.63;4993969;27;20579;-68
2022/06/20 01:04:59;;;;;;;7.65;4.82;;;;;;;16.31;72.26;100553.44;5011438;27;20911;-68
2022/06/20 01:07:33;;;;;;;5.90;4.90;;;;;;;16.41;72.14;100575.44;5017356;27;20124;-68
2022/06/20 01:09:58;;;;;;;9.02;4.60;;;;;;;16.45;72.34;100594.56;4997202;27;20022;-67
2022/06/20 01:12:24;;;;;;;8.38;5.07;;;;;;;16.35;72.27;100632.19;4995100;27;20283;-68
2022/06/20 01:14:50;;;;;;;6.78;4.97;;;;;;;16.29;73.06;100657.78;4994636;27;20057;-68
2022/06/20 01:17:31;;;;;;;8.77;4.90;;;;;;;16.38;73.78;100687.09;4998610;27;20023;-69
2022/06/20 01:20:12;;;;;;;9.27;4.72;;;;;;;16.40;73.93;100723.31;5030478;27;20028;-68
2022/06/20 01:23:16;;;;;;;8.57;5.00;;;;;;;16.51;74.34;100739.94;5000122;27;20032;-67
2022/06/20 01:25:45;;;;;;;7.57;5.30;;;;;;;16.35;76.30;100760.38;5006803;27;20016;-68
2022/06/20 01:28:13;;;;;;;10.43;6.45;;;;;;;16.36;78.50;100774.56;5026197;27;20063;-68
2022/06/20 01:30:41;;;;;;;9.10;5.85;;;;;;;16.33;79.66;100802.47;4979051;27;20029;-70
2022/06/20 01:33:07;;;;;;;13.10;7.25;;;;;;;16.30;81.25;100813.47;5002571;27;20562;-69
2022/06/20 01:38:18;;;;;;;14.02;8.02;;;;;;;16.04;82.28;100819.09;5015748;27;20093;-70
2022/06/20 01:42:18;;;;;;;12.13;8.15;;;;;;;16.00;83.00;100815.91;5011887;27;20021;-69
2022/06/20 01:43:31;;;;;;;10.57;8.35;;;;;;;15.94;84.87;100827.28;5029200;27;20443;-68
2022/06/20 01:45:59;;;;;;;11.00;9.55;;;;;;;15.96;84.50;100812.75;5010011;27;20930;-68
2022/06/20 01:48:27;;;;;;;13.40;10.25;;;;;;;15.93;86.06;100796.25;5013678;27;20009;-68
2022/06/20 01:50:52;;;;;;;14.85;10.88;;;;;;;15.89;86.36;100779.75;5008696;27;20575;-70
2022/06/20 01:53:20;;;;;;;10.93;9.82;;;;;;;15.76;85.54;100752.72;4992994;27;20972;-68
2022/06/20 01:55:47;;;;;;;13.50;10.50;;;;;;;15.81;86.44;100731.75;4994399;27;20024;-68
2022/06/20 01:58:22;;;;;;;19.73;10.57;;;;;;;15.80;87.23;100717.56;5008933;27;20562;-68
2022/06/20 02:00:47;;;;;;;12.10;10.40;;;;;;;15.75;86.82;100701.22;5011304;27;20085;-68
2022/06/20 02:03:15;;;;;;;15.82;11.20;;;;;;;15.75;88.48;100671.00;5026113;27;20010;-69
2022/06/20 02:05:44;;;;;;;14.82;11.63;;;;;;;15.80;87.97;100648.19;4991429;27;20008;-68
2022/06/20 02:08:10;;;;;;;15.40;10.93;;;;;;;15.87;87.75;100629.66;5008910;27;20124;-69
2022/06/20 02:10:40;;;;;;;11.75;10.45;;;;;;;15.65;87.21;100585.03;4988717;27;20032;-68
2022/06/20 02:13:06;;;;;;;16.05;11.30;;;;;;;15.72;88.16;100549.50;4996563;27;20930;-68
2022/06/20 02:15:31;;;;;;;15.10;11.43;;;;;;;15.61;87.38;100528.56;5015902;28;20027;-69
2022/06/20 02:17:57;;;;;;;14.23;11.55;;;;;;;15.64;87.92;100498.84;4995006;27;20025;-68
2022/06/20 02:20:25;;;;;;;13.30;10.48;;;;;;;15.54;87.10;100472.41;5014264;27;20028;-68
2022/06/20 02:22:50;;;;;;;12.80;11.52;;;;;;;15.61;88.15;100456.53;4994338;27;20089;-68
2022/06/20 02:25:23;;;;;;;12.82;11.02;;;;;;;15.58;87.73;100425.72;5011393;27;20036;-68
2022/06/20 02:27:51;;;;;;;13.10;11.13;;;;;;;15.49;88.31;100389.44;5014360;27;20422;-70
2022/06/20 02:30:16;;;;;;;13.25;11.20;;;;;;;15.57;88.59;100362.72;5028869;27;20081;-68
2022/06/20 02:32:45;;;;;;;13.15;11.57;;;;;;;15.51;87.45;100322.59;4997269;27;20008;-68
2022/06/20 02:35:12;;;;;;;12.23;10.98;;;;;;;15.25;87.41;100286.47;5016572;27;20684;-69
2022/06/20 02:37:38;;;;;;;10.93;9.93;;;;;;;15.27;87.92;100263.13;5015701;27;20020;-69
2022/06/20 02:40:06;;;;;;;12.25;10.38;;;;;;;15.20;86.41;100246.19;5029616;27;20024;-70
2022/06/20 02:42:56;;;;;;;11.40;10.00;;;;;;;15.17;86.93;100223.38;5016739;27;20345;-68
2022/06/20 02:45:21;;;;;;;11.13;10.07;;;;;;;15.14;86.73;100196.28;5033846;27;20016;-67
2022/06/20 02:47:50;;;;;;;13.00;9.90;;;;;;;15.13;86.35;100170.63;5032696;27;20029;-69
2022/06/20 02:50:17;;;;;;;11.55;9.55;;;;;;;15.04;86.39;100162.69;5032927;27;20020;-67
2022/06/20 02:53:05;;;;;;;11.88;9.48;;;;;;;14.86;87.99;100173.69;5017422;27;20016;-68
2022/06/20 02:55:31;;;;;;;10.32;9.23;;;;;;;14.82;88.39;100212.34;4999048;27;20059;-68
2022/06/20 02:57:58;;;;;;;9.32;8.43;;;;;;;14.88;87.39;100269.44;5016752;27;20120;-66
2022/06/20 03:00:36;;;;;;;9.10;8.00;;;;;;;14.83;87.96;100279.78;5012027;27;20501;-68
2022/06/20 03:03:09;;;;;;;9.50;8.68;;;;;;;14.87;88.60;100327.19;5018546;27;20136;-69
2022/06/20 03:05:35;;;;;;;8.60;7.82;;;;;;;14.89;88.54;100330.53;5017875;27;20091;-68
2022/06/20 03:08:01;;;;;;;8.50;7.80;;;;;;;15.06;88.99;100341.06;4999202;27;20020;-68
2022/06/20 03:10:36;;;;;;;8.38;7.68;;;;;;;15.01;88.06;100344.25;5013342;27;20404;-69
2022/06/20 03:13:01;;;;;;;8.00;7.40;;;;;;;15.06;86.76;100327.72;5013096;27;20070;-68
2022/06/20 03:15:27;;;;;;;6.53;6.03;;;;;;;15.05;85.52;100332.25;5007120;27;20017;-68
2022/06/20 03:17:52;;;;;;;6.40;5.95;;;;;;;15.10;84.42;100342.38;4996556;27;20078;-67
2022/06/20 03:20:19;;;;;;;6.63;6.13;;;;;;;15.03;86.28;100362.72;5013561;27;20759;-68
2022/06/20 03:22:50;;;;;;;6.78;6.18;;;;;;;15.03;85.60;100376.91;5032421;27;20492;-68
2022/06/20 03:25:15;;;;;;;6.72;6.13;;;;;;;15.07;85.99;100370.22;5027636;27;20431;-68
2022/06/20 03:27:41;;;;;;;7.50;6.05;;;;;;;15.08;85.86;100376.38;5012712;27;20411;-68
2022/06/20 03:30:28;;;;;;;6.97;6.38;;;;;;;15.13;86.16;100378.50;5025683;27;20019;-67
2022/06/20 03:32:54;;;;;;;6.70;6.20;;;;;;;15.23;85.65;100384.44;5033138;27;20032;-67
2022/06/20 03:35:19;;;;;;;6.75;6.28;;;;;;;15.18;85.27;100376.97;5013070;27;20120;-67
2022/06/20 03:37:45;;;;;;;7.53;7.03;;;;;;;15.01;86.25;100364.75;5007784;28;20191;-68
2022/06/20 03:40:11;;;;;;;7.53;6.80;;;;;;;14.98;86.94;100370.44;5010915;27;20913;-68
2022/06/20 03:42:36;;;;;;;8.02;7.22;;;;;;;15.01;87.35;100391.41;4990920;28;20009;-69
2022/06/20 03:45:03;;;;;;;7.47;6.78;;;;;;;14.94;87.18;100407.25;4993319;28;20017;-68
2022/06/20 03:47:34;;;;;;;10.50;6.80;;;;;;;14.93;86.89;100418.91;4995454;28;20024;-68
2022/06/20 03:50:10;;;;;;;6.85;6.45;;;;;;;15.07;87.58;100463.50;5007989;27;20103;-69
2022/06/20 03:53:03;;;;;;;8.20;6.60;;;;;;;15.01;87.83;100482.00;5010919;27;20032;-68
2022/06/20 03:55:42;;;;;;;6.60;6.05;;;;;;;15.18;86.25;100490.75;5015554;27;20082;-67
2022/06/20 03:58:25;;;;;;;6.40;5.90;;;;;;;15.14;87.47;100484.94;4993994;28;20639;-68
2022/06/20 04:00:50;;;;;;;6.57;6.00;;;;;;;15.14;87.37;100514.25;4994528;28;20013;-69
2022/06/20 04:03:23;;;;;;;6.07;5.50;;;;;;;15.13;85.76;100539.25;5012926;28;20010;-68
2022/06/20 04:05:52;;;;;;;6.40;5.90;;;;;;;15.11;86.69;100583.91;4994115;28;20472;-69
2022/06/20 04:11:24;;;;;;;6.22;5.63;;;;;;;15.05;87.06;100601.41;5014185;27;20451;-68
2022/06/20 04:14:10;;;;;;;6.20;5.80;;;;;;;15.13;84.21;100618.38;5010487;27;20763;-68
2022/06/20 04:16:43;;;;;;;8.73;6.20;;;;;;;15.02;85.72;100627.56;5028825;27;19993;-69
2022/06/20 04:19:15;;;;;;;7.50;6.88;;;;;;;15.03;87.97;100646.06;5012233;27;20811;-69
2022/06/20 04:22:01;;;;;;;7.32;6.63;;;;;;;14.97;88.11;100668.03;5029357;27;20035;-68
2022/06/20 04:24:48;;;;;;;7.43;6.80;;;;;;;15.13;87.83;100671.69;5030273;27;20128;-68
2022/06/20 04:27:31;;;;;;;7.32;6.88;;;;;;;15.04;87.11;100685.00;5033390;27;20357;-69
2022/06/20 04:30:01;;;;;;;7.90;7.20;;;;;;;14.94;87.31;100685.16;5016155;27;20025;-68
2022/06/20 04:32:30;;;;;;;7.78;7.18;;;;;;;14.97;87.40;100692.00;4997158;27;20028;-69
2022/06/20 04:34:56;;;;;;;8.02;7.43;;;;;;;14.94;88.05;100673.69;5009418;28;20012;-69
2022/06/20 04:37:38;;;;;;;9.05;8.18;;;;;;;14.97;87.98;100681.34;5009696;27;20029;-69
2022/06/20 04:40:11;;;;;;;9.43;8.52;;;;;;;15.02;88.21;100676.34;4991635;27;20960;-70
2022/06/20 04:42:50;;;;;;;9.00;8.20;;;;;;;15.04;87.56;100687.66;4997094;28;20025;-69
2022/06/20 04:45:23;;;;;;;8.80;7.97;;;;;;;15.04;87.69;100679.66;5015407;27;20121;-69
2022/06/20 04:47:58;;;;;;;9.43;8.48;;;;;;;15.10;88.14;100673.69;4996274;27;20248;-69
2022/06/20 04:50:24;;;;;;;8.60;7.90;;;;;;;14.97;87.46;100670.69;5013658;27;20974;-69
2022/06/20 04:52:51;;;;;;;9.40;8.45;;;;;;;15.01;87.15;100671.19;5016324;27;20048;-67
2022/06/20 04:55:20;;;;;;;8.88;7.90;;;;;;;14.93;86.13;100677.34;5029807;27;20032;-69
2022/06/20 04:57:45;;;;;;;8.77;7.88;;;;;;;14.89;86.01;100671.53;5016551;27;20181;-68
2022/06/20 05:00:19;;;;;;;8.13;7.30;;;;;;;14.80;86.09;100666.38;5015788;27;20630;-68
2022/06/20 05:02:45;;;;;;;8.68;7.90;;;;;;;14.75;86.24;100670.38;5013914;27;20017;-69
2022/06/20 05:05:14;;;;;;;9.73;8.40;;;;;;;14.69;87.39;100660.38;4999917;27;20025;-69
2022/06/20 05:07:41;;;;;;;9.00;8.25;;;;;;;14.65;88.12;100659.06;4996845;27;20001;-68
2022/06/20 05:10:11;;;;;;;8.52;7.72;;;;;;;14.65;87.78;100655.53;4999117;27;20017;-68
2022/06/20 05:12:52;;;;;;;9.77;8.38;;;;;;;14.68;88.15;100634.75;5018165;27;20044;-69
2022/06/20 05:15:39;;;;;;;8.13;7.43;;;;;;;14.65;87.96;100640.41;4999285;27;20446;-69
2022/06/20 05:18:24;;;;;;;8.15;7.35;;;;;;;14.66;86.89;100636.72;4997437;27;20233;-68
2022/06/20 05:20:52;;;;;;;7.97;7.30;;;;;;;14.65;88.07;100623.56;5033809;27;20760;-70
2022/06/20 05:23:38;;;;;;;8.95;6.97;;;;;;;14.53;87.75;100617.72;5032509;27;20850;-69
2022/06/20 05:26:04;;;;;;;7.63;7.05;;;;;;;14.60;88.35;100613.41;5015060;27;20566;-70
2022/06/20 05:28:31;;;;;;;7.97;7.28;;;;;;;14.63;88.46;100602.44;5014573;27;20971;-68
2022/06/20 05:30:57;;;;;;;8.27;7.47;;;;;;;14.65;88.56;100604.94;5016606;27;20051;-69
2022/06/20 05:33:29;;;;;;;7.90;7.20;;;;;;;14.66;88.49;100614.59;5016024;27;20207;-69
2022/06/20 05:35:59;;;;;;;7.65;7.00;;;;;;;14.69;88.53;100623.09;4996998;27;20072;-70
2022/06/20 05:38:46;;;;;;;7.47;6.85;;;;;;;14.71;87.90;100621.09;5013222;27;21270;-69
2022/06/20 05:41:15;;;;;;;10.63;7.03;;;;;;;14.70;87.94;100608.75;5031900;27;20035;-70
2022/06/20 05:43:40;;;;;;;7.47;6.78;;;;;;;14.64;87.69;100611.25;5015331;27;20008;-69
2022/06/20 05:46:14;;;;;;;8.27;6.97;;;;;;;14.67;88.17;100613.59;5032457;27;20161;-68
2022/06/20 05:48:44;;;;;;;7.25;6.60;;;;;;;14.77;88.42;100614.25;4995812;27;20001;-68
2022/06/20 05:51:13;;;;;;;9.77;6.40;;;;;;;14.70;87.38;100618.59;5021025;27;20036;-68
2022/06/20 05:53:41;;;;;;;6.20;5.70;;;;;;;14.72;86.79;100616.56;5016696;27;20019;-69
2022/06/20 05:56:19;;;;;;;7.68;5.78;;;;;;;14.77;86.33;100614.25;5003215;27;20086;-69
2022/06/20 05:58:44;;;;;;;6.60;6.00;;;;;;;14.73;87.49;100620.91;4977596;27;20025;-69
2022/06/20 06:01:15;;;;;;;6.50;5.90;;;;;;;14.63;87.54;100623.75;4994905;27;20016;-68
2022/06/20 06:03:56;;;;;;;10.80;6.20;;;;;;;14.65;86.41;100620.91;4996402;27;20029;-69
2022/06/20 06:06:25;;;;;;;6.47;4.93;;;;;;;14.58;86.39;100631.34;5030319;27;20428;-69
2022/06/20 06:09:02;;;;;;;7.45;4.93;;;;;;;14.48;86.53;100641.34;4995709;27;20056;-68
2022/06/20 06:11:35;;;;;;;8.20;4.35;;;;;;;14.47;85.82;100637.00;4995612;27;20025;-69
2022/06/20 06:14:37;;;;;;;6.70;4.20;;;;;;;14.48;86.74;100644.00;4996718;28;20197;-68
2022/06/20 06:17:22;;;;;;;6.43;4.82;;;;;;;14.38;87.35;100636.19;4983309;28;20013;-69
2022/06/20 06:19:51;;;;;;;5.18;4.38;;;;;;;14.36;86.32;100628.34;5017217;27;20436;-69
2022/06/20 06:22:38;;;;;;;8.45;4.53;;;;;;;14.42;87.66;100619.72;4994424;28;20447;-69
2022/06/20 06:25:14;;;;;;;4.38;3.60;;;;;;;14.41;87.13;100614.53;4995488;27;20013;-70
2022/06/20 06:27:40;;;;;;;5.93;3.80;;;;;;;14.55;87.17;100626.38;5013233;27;20313;-68
2022/06/20 06:30:19;;;;;;;4.25;3.40;;;;;;;14.52;87.01;100638.19;4995248;27;20014;-69
2022/06/20 06:32:48;;;;;;;5.72;3.80;;;;;;;14.42;87.01;100658.81;4994215;28;20056;-70
2022/06/20 06:35:22;;;;;;;4.30;3.60;;;;;;;14.50;87.12;100660.66;4995711;27;20283;-69
2022/06/20 06:37:52;;;;;;;4.13;3.35;;;;;;;14.43;87.25;100663.97;5031781;27;20025;-69
2022/06/20 06:40:43;;;;;;;3.97;3.15;;;;;;;14.45;87.52;100662.97;4997845;27;20060;-69
2022/06/20 06:43:19;;;;;;;5.40;3.38;;;;;;;14.47;87.27;100669.81;4994314;28;20109;-69
2022/06/20 06:45:45;;;;;;;5.55;3.47;;;;;;;14.53;85.80;100687.78;4994121;28;20581;-69
2022/06/20 06:48:22;;;;;;;4.90;3.50;;;;;;;14.50;86.09;100684.63;4998129;27;20139;-69
2022/06/20 06:50:48;;;;;;;6.30;3.40;;;;;;;14.65;86.87;100688.34;4995082;28;20029;-70
2022/06/20 06:53:31;;;;;;;3.47;3.17;;;;;;;14.58;86.09;100690.78;5012254;27;20031;-69
2022/06/20 06:55:59;;;;;;;4.80;2.67;;;;;;;14.53;85.41;100703.75;5034654;27;20039;-69
2022/06/20 06:58:38;;;;;;;5.45;2.92;;;;;;;14.55;85.63;100723.09;5032399;27;20104;-69
2022/06/20 07:01:07;;;;;;;6.57;3.28;;;;;;;14.57;85.87;100722.91;5015320;27;20782;-70
2022/06/20 07:03:37;;;;;;;5.55;3.22;;;;;;;14.57;86.38;100725.59;5034173;27;20028;-68
2022/06/20 07:06:04;;;;;;;7.28;3.63;;;;;;;14.59;86.34;100732.41;5018890;27;20237;-70
2022/06/20 07:08:34;;;;;;;4.32;3.00;;;;;;;14.66;86.88;100721.13;5034612;27;20013;-68
2022/06/20 07:11:27;;;;;;;6.88;3.42;;;;;;;14.70;86.31;100715.31;5011248;27;20036;-68
2022/06/20 07:13:59;;;;;;;8.03;3.57;;;;;;;14.82;86.65;100718.50;5013830;28;20504;-69
2022/06/20 07:16:31;;;;;;;8.15;3.72;;;;;;;14.81;86.50;100719.47;5027496;27;20985;-69
2022/06/20 07:18:56;;;;;;;7.28;3.88;;;;;;;14.91;86.83;100722.00;5030345;27;20794;-69
2022/06/20 07:21:23;;;;;;;7.60;4.47;;;;;;;14.77;85.74;100723.47;4988979;27;20686;-69
2022/06/20 07:23:53;;;;;;;4.22;3.70;;;;;;;14.87;85.81;100741.97;5015531;27;20205;-68
2022/06/20 07:26:21;;;;;;;8.38;4.32;;;;;;;15.00;85.76;100726.31;5015290;27;20016;-70
2022/06/20 07:28:59;;;;;;;9.57;4.10;;;;;;;15.00;85.57;100742.28;4998808;27;20348;-69
2022/06/20 07:31:45;;;;;;;6.13;4.18;;;;;;;14.90;84.46;100733.63;5030673;27;20075;-71
2022/06/20 07:34:28;;;;;;;6.07;4.20;;;;;;;14.90;84.25;100728.31;5014891;27;20201;-68
2022/06/20 07:37:34;;;;;;;7.15;4.53;;;;;;;14.96;85.40;100741.00;5031363;27;20607;-68
2022/06/20 07:40:19;;;;;;;6.80;4.57;;;;;;;14.89;82.44;100735.47;4962217;28;20410;-71
2022/06/20 07:42:50;;;;;;;7.70;5.13;;;;;;;14.77;83.95;100721.63;5012909;27;20472;-69
2022/06/20 07:45:30;;;;;;;7.70;4.80;;;;;;;14.91;84.41;100732.66;5006619;27;20017;-70
2022/06/20 07:48:01;;;;;;;7.38;4.78;;;;;;;14.88;84.24;100735.66;5011081;27;20025;-69
2022/06/20 07:50:34;;;;;;;10.38;4.68;;;;;;;14.90;84.38;100730.97;4997278;27;20021;-69
2022/06/20 07:53:12;;;;;;;5.15;4.65;;;;;;;14.91;84.06;100738.81;5013603;28;20868;-69
2022/06/20 07:55:40;;;;;;;11.02;4.55;;;;;;;14.86;82.32;100732.31;4999981;28;20029;-68
2022/06/20 07:58:12;;;;;;;7.65;4.22;;;;;;;14.98;81.18;100736.31;4995696;28;20135;-68
2022/06/20 08:00:41;;;;;;;6.70;4.38;;;;;;;15.10;81.70;100745.66;5012117;28;20020;-69
2022/06/20 08:03:45;;;;;;;5.38;4.28;;;;;;;15.17;80.77;100750.31;5011922;28;20079;-69
2022/06/20 08:06:22;;;;;;;5.80;3.90;;;;;;;15.22;80.84;100762.13;5010612;27;20044;-69
2022/06/20 08:09:00;;;;;;;5.78;3.63;;;;;;;15.28;79.20;100760.63;5032490;27;20009;-69
2022/06/20 08:11:43;;;;;;;4.28;3.65;;;;;;;15.31;78.93;100764.81;5017175;27;20025;-69
2022/06/20 08:14:46;;;;;;;4.60;3.30;;;;;;;15.35;78.42;100776.81;5012148;28;20040;-68
2022/06/20 08:17:12;;;;;;;4.75;2.95;;;;;;;15.53;77.46;100795.28;4988159;28;20081;-68
2022/06/20 08:19:39;;;;;;;4.45;2.65;;;;;;;15.67;75.78;100802.59;5030319;27;20013;-69
2022/06/20 08:22:06;;;;;;;5.35;4.28;;;;;;;15.84;75.84;100813.28;5014163;27;20955;-69
2022/06/20 08:24:41;;;;;;;3.85;2.50;;;;;;;15.98;74.13;100825.94;5031560;27;20013;-69
2022/06/20 08:27:09;;;;;;;4.53;2.35;;;;;;;16.16;73.77;100827.53;5014574;27;20593;-68
2022/06/20 08:29:39;;;;;;;3.30;1.88;;;;;;;16.31;72.62;100831.16;4998502;27;20013;-69
2022/06/20 08:32:30;;;;;;;2.20;2.00;;;;;;;16.36;70.62;100834.16;4997960;27;20085;-68
2022/06/20 08:35:27;;;;;;;4.25;2.05;;;;;;;16.47;70.46;100852.47;4998806;27;20005;-69
2022/06/20 08:38:06;;;;;;;3.72;1.92;;;;;;;16.41;68.59;100863.88;5030413;27;20364;-69
2022/06/20 08:40:46;;;;;;;3.28;1.83;;;;;;;16.54;69.06;100851.78;5014604;27;20015;-69
2022/06/20 08:43:32;;;;;;;4.07;1.80;;;;;;;16.60;67.85;100856.44;5015277;27;20112;-69
2022/06/20 08:46:04;;;;;;;4.75;2.10;;;;;;;16.78;68.70;100861.53;5034886;27;20017;-65
2022/06/20 08:48:41;;;;;;;4.47;1.77;;;;;;;16.95;69.76;100865.81;5030333;27;20009;-65
2022/06/20 08:52:06;;;;;;;4.10;2.00;;;;;;;17.26;66.13;100869.47;5030689;27;20155;-67
2022/06/20 08:54:58;;;;;;;4.47;1.70;;;;;;;17.47;67.14;100864.31;5032548;27;20060;-70
2022/06/20 08:57:46;;;;;;;3.43;1.67;;;;;;;17.61;66.09;100859.16;5031513;27;20094;-66
2022/06/20 09:00:14;;;;;;;2.97;1.45;;;;;;;17.73;66.27;100871.09;5031169;27;20662;-69
2022/06/20 09:02:43;;;;;;;2.85;1.80;;;;;;;17.58;62.78;100871.06;5030833;27;20435;-68
2022/06/20 09:05:27;;;;;;;3.67;1.65;;;;;;;17.61;66.63;100861.84;5032900;27;20020;-68
2022/06/20 09:08:21;;;;;;;6.30;2.25;;;;;;;17.44;65.49;100872.69;5031264;27;20032;-69
2022/06/20 09:11:03;;;;;;;4.57;2.20;;;;;;;17.49;63.88;100882.84;5031559;27;20120;-69
2022/06/20 09:14:00;;;;;;;5.53;2.03;;;;;;;17.41;65.64;100864.19;5030898;27;20024;-70
2022/06/20 09:16:50;;;;;;;5.03;2.13;;;;;;;17.41;64.69;100862.31;5032483;27;20001;-70
2022/06/20 09:19:58;;;;;;;7.30;2.42;;;;;;;17.30;64.66;100860.91;5031259;27;20052;-70
2022/06/20 09:22:40;;;;;;;4.43;2.45;;;;;;;17.44;66.28;100864.66;5018171;27;20025;-69
2022/06/20 09:25:24;;;;;;;4.20;2.58;;;;;;;17.66;63.69;100870.16;5012321;28;20654;-68
2022/06/20 09:28:15;;;;;;;3.95;2.22;;;;;;;18.18;62.11;100876.56;5012492;27;20021;-68
2022/06/20 09:30:41;;;;;;;5.68;2.47;;;;;;;19.22;64.81;100884.50;5012832;28;20029;-69
2022/06/20 09:33:18;;;;;;;4.63;2.67;;;;;;;19.86;63.53;100885.50;5014782;28;20041;-68
2022/06/20 09:35:56;;;;;;;6.75;2.80;;;;;;;19.79;57.66;100890.00;4994055;28;20259;-68
2022/06/20 09:38:52;;;;;;;5.63;2.78;;;;;;;19.78;57.23;100882.09;5031184;27;20032;-70
2022/06/20 09:41:27;;;;;;;6.05;3.13;;;;;;;19.32;56.76;100899.44;5030982;27;20754;-69
2022/06/20 09:44:10;;;;;;;7.32;3.08;;;;;;;19.33;57.95;100896.59;5010660;27;20447;-70
2022/06/20 09:46:47;;;;;;;5.28;2.83;;;;;;;19.47;56.78;100894.84;5030257;27;20013;-69
2022/06/20 09:49:22;;;;;;;7.13;3.17;;;;;;;18.98;58.20;100893.72;5031477;27;20024;-69
2022/06/20 09:52:32;;;;;;;4.18;2.85;;;;;;;18.84;57.77;100898.06;5019037;27;20015;-69
2022/06/20 09:55:00;;;;;;;5.88;3.42;;;;;;;18.61;56.72;100897.34;5018766;27;20016;-68
2022/06/20 09:57:32;;;;;;;8.57;3.13;;;;;;;18.53;60.00;100901.78;5028536;27;20964;-69
2022/06/20 10:00:04;;;;;;;4.72;3.40;;;;;;;18.19;59.92;100894.31;5028877;27;20049;-69
2022/06/20 10:02:41;;;;;;;6.40;3.40;;;;;;;17.97;59.48;100898.72;5032079;27;20171;-68
2022/06/20 10:05:22;;;;;;;5.45;3.10;;;;;;;17.94;61.29;100888.38;5030300;27;20009;-69
2022/06/20 10:07:56;;;;;;;5.22;3.38;;;;;;;17.70;62.20;100890.22;5031864;27;20013;-69
2022/06/20 10:10:47;;;;;;;5.40;3.55;;;;;;;17.65;63.86;100889.91;5012924;27;20926;-69
2022/06/20 10:13:43;;;;;;;4.30;2.75;;;;;;;17.62;63.12;100898.31;4999131;27;20286;-69
2022/06/20 10:16:34;;;;;;;5.43;3.50;;;;;;;17.75;63.85;100908.41;5015331;28;20663;-70
2022/06/20 10:19:15;;;;;;;5.72;3.08;;;;;;;17.98;63.43;100903.88;5032445;28;20168;-69
2022/06/20 10:21:47;;;;;;;9.27;3.00;;;;;;;18.64;61.68;100911.22;5033710;27;20597;-69
2022/06/20 10:24:28;;;;;;;8.70;3.03;;;;;;;19.05;58.63;100915.28;5012248;28;20423;-69
2022/06/20 10:27:12;;;;;;;5.30;2.85;;;;;;;18.87;59.59;100929.06;5031908;27;20162;-67
2022/06/20 10:30:06;;;;;;;5.80;2.70;;;;;;;18.70;58.51;100918.50;5034752;27;20025;-69
2022/06/20 10:32:50;;;;;;;;;;;;;;;18.56;56.69;100931.91;5035555;27;20021;-69
2022/06/20 10:35:17;;;;;;;4.30;2.90;;;;;;;18.68;57.08;100928.59;5029762;27;19907;-68
2022/06/20 10:38:03;;;;;;;7.95;3.58;;;;;;;18.75;57.50;100925.16;5006957;28;20230;-68
2022/06/20 10:41:03;;;;;;;9.20;3.80;;;;;;;18.54;60.42;100929.41;5008085;28;20017;-69
2022/06/20 10:43:47;;;;;;;6.55;3.45;;;;;;;18.52;59.07;100943.00;5010086;28;20017;-69
2022/06/20 10:46:35;;;;;;;10.85;3.97;;;;;;;18.68;58.98;100935.78;5009369;28;20125;-69
2022/06/20 10:49:16;;;;;;;8.13;3.88;;;;;;;18.85;59.34;100918.50;5020449;27;20460;-70
2022/06/20 10:52:20;;;;;;;7.22;3.63;;;;;;;18.84;58.72;100930.25;5030619;27;20140;-69
2022/06/20 10:55:08;;;;;;;7.82;3.70;;;;;;;18.81;59.81;100938.66;5021882;27;20378;-68
2022/06/20 10:57:55;;;;;;;6.13;3.30;;;;;;;18.88;57.83;100944.97;5030206;27;20054;-69
2022/06/20 11:00:22;;;;;;;6.13;3.22;;;;;;;19.29;56.37;100934.69;5042690;27;20905;-69
2022/06/20 11:03:16;;;;;;;6.13;3.70;;;;;;;19.76;56.64;100927.94;5002242;27;20784;-70
2022/06/20 11:06:20;;;;;;;7.57;3.60;;;;;;;20.10;54.36;100934.44;5037487;27;20044;-69
2022/06/20 11:09:04;;;;;;;6.18;3.45;;;;;;;20.30;54.07;100933.78;5032922;27;20309;-70
2022/06/20 11:12:09;;;;;;;8.90;3.60;;;;;;;20.16;55.18;100928.28;5048051;27;20029;-69
2022/06/20 11:14:37;;;;;;;8.15;3.53;;;;;;;20.25;53.33;100924.44;4953722;27;20020;-69
2022/06/20 11:17:33;;;;;;;6.35;3.83;;;;;;;20.48;53.72;100928.72;5036794;27;20802;-70
2022/06/20 11:20:27;;;;;;;5.25;3.00;;;;;;;20.62;49.75;100931.50;5034301;27;20123;-69
2022/06/20 11:23:04;;;;;;;4.82;2.70;;;;;;;22.12;48.32;100931.44;5036220;27;20009;-68
2022/06/20 11:26:11;;;;;;;5.35;2.72;;;;;;;22.78;48.97;100932.38;5022422;27;20015;-68
2022/06/20 11:28:49;;;;;;;3.85;2.55;;;;;;;23.83;44.22;100932.00;4959673;28;20010;-69
2022/06/20 11:31:27;;;;;;;8.98;3.03;;;;;;;23.91;42.28;100927.38;5012256;27;20333;-70
2022/06/20 11:34:27;;;;;;;4.90;2.53;;;;;;;24.18;39.22;100922.56;5018386;27;20005;-69
2022/06/20 11:37:06;;;;;;;2.95;2.08;;;;;;;24.89;41.32;100923.06;5022349;27;20024;-71
2022/06/20 11:39:34;;;;;;;5.53;2.70;;;;;;;25.12;37.90;100926.94;5016416;27;20024;-70
2022/06/20 11:42:30;;;;;;;3.92;2.53;;;;;;;23.70;39.18;100928.56;5043458;27;20024;-69
2022/06/20 11:45:21;;;;;;;4.15;2.50;;;;;;;23.05;40.83;100916.06;5024658;27;20190;-69
2022/06/20 11:48:11;;;;;;;3.78;2.35;;;;;;;23.13;43.10;100929.34;5016604;27;20803;-69
2022/06/20 11:51:01;;;;;;;4.75;2.67;;;;;;;22.62;42.51;100920.19;5052331;27;20139;-70
2022/06/20 11:53:34;;;;;;;5.30;2.40;;;;;;;22.13;44.26;100919.63;5017223;27;20036;-69
2022/06/20 11:56:04;;;;;;;4.80;2.50;;;;;;;22.18;44.06;100921.69;5000491;27;20735;-69
2022/06/20 11:59:11;;;;;;;3.72;2.40;;;;;;;23.12;42.25;100924.97;5016722;27;20697;-69
2022/06/20 12:01:51;;;;;;;5.90;2.30;;;;;;;24.35;42.46;100907.41;5016245;27;20009;-69
2022/06/20 12:04:29;;;;;;;3.03;2.05;;;;;;;24.75;38.42;100906.16;5000376;27;20049;-70
2022/06/20 12:06:58;;;;;;;3.55;1.73;;;;;;;25.01;36.83;100909.56;4999139;27;20005;-68
2022/06/20 12:09:47;;;;;;;4.50;2.10;;;;;;;25.29;37.80;100905.44;4981673;27;20009;-69
2022/06/20 12:12:39;;;;;;;3.58;1.85;;;;;;;25.80;37.46;100905.91;5015839;27;20040;-70